Main page
METAR-TAF:

METAR-TAF

Airports :

Abakan International Airport

Abakan, Russia

latitude: 53-45N, longitude: 091-24E, elevation: 245 m

Current weather observation

The report was made 29 minutes ago, at 17:00 UTC
Calm wind
Temperature 14°C
Humidity 94%
Pressure 1009 hPa
Visibility 10 km or more
Scattered clouds at a height of 4000 ft, Cumulonimbus.
light rain showers

METAR: UNAA 221700Z 00000MPS 9999 -SHRA SCT040CB 14/13 Q1009 R20/290055 NOSIG RMK QFE734

Time: 00:29 (17:29 UTC)

Forecast

The report was made 3 hours and 29 minutes ago, at 14:00 UTC
Forecast valid from 22 at 15 UTC to 23 at 15 UTC
Wind 6 kt from the Southwest with gusts up to 19 kt
Visibility: 6000 m
Scattered clouds at a height of 1600 ft, Cumulonimbus.
light rain showers
Temporary
from 22 at 23 UTC to 23 at 06 UTC
Visibility: 3500 m
thunderstorm, light rain

TAF: UNAA 221400Z 2215/2315 23003G10MPS 6000 -SHRA SCT016CB TEMPO 2223/2306 3500 -TSRA

Weather observations and forecasts of more than 4000 airports (METAR and TAF reports).

The available stations are represented by yellow and red dots on the map.

Hover mouse over dot to see the name of the station.

Then click to see weather observations and forecasts.

To change the map : click on the green buttons with a black cross to zoom in, on the green button with a dash to zoom out, or on the green arrows for adjacent maps.


METAR-TAF: